Time;durP1;ratioP1;P1;durP2;ratioP2;P2;SDS_P1;SDS_P2;PMS_P1;PMS_P2;Temp;Humidity;BMP_temperature;BMP_pressure;BME280_temperature;BME280_humidity;BME280_pressure;Samples;Min_cycle;Max_cycle;Signal;HPM_P1;HPM_P2
2022/11/22 00:00:41;;;;;;;110.07;44.17;;;;;;;;;;5084228;28;20047;-43
2022/11/22 00:03:08;;;;;;;105.13;44.58;;;;;;;;;;5079369;28;20761;-43
2022/11/22 00:05:34;;;;;;;120.80;44.17;;;;;;;;;;5083856;28;20041;-43
2022/11/22 00:08:01;;;;;;;114.93;43.65;;;;;;;;;;5079775;28;20058;-42
2022/11/22 00:10:27;;;;;;;126.13;45.20;;;;;;;;;;5082338;28;20089;-43
2022/11/22 00:12:54;;;;;;;122.03;47.42;;;;;;;;;;5081572;28;20028;-44
2022/11/22 00:15:21;;;;;;;112.00;42.33;;;;;;;;;;5082932;28;20044;-43
2022/11/22 00:17:47;;;;;;;118.63;43.90;;;;;;;;;;5084333;28;20486;-43
2022/11/22 00:20:14;;;;;;;123.85;45.83;;;;;;;;;;5085230;28;20037;-43
2022/11/22 00:22:40;;;;;;;113.63;43.78;;;;;;;;;;5082693;28;20098;-43
2022/11/22 00:25:10;;;;;;;127.15;45.28;;;;;;;;;;5082891;28;20067;-43
2022/11/22 00:27:36;;;;;;;123.25;46.78;;;;;;;;;;5082020;28;20119;-43
2022/11/22 00:30:03;;;;;;;125.70;44.80;;;;;;;;;;5082848;28;20063;-45
2022/11/22 00:32:30;;;;;;;118.85;44.33;;;;;;;;;;5082646;28;20420;-42
2022/11/22 00:34:56;;;;;;;123.22;43.75;;;;;;;;;;5081813;28;20040;-43
2022/11/22 00:37:23;;;;;;;110.70;41.60;;;;;;;;;;5081878;28;20032;-42
2022/11/22 00:39:49;;;;;;;121.20;42.97;;;;;;;;;;5080876;28;20054;-43
2022/11/22 00:42:16;;;;;;;130.90;44.70;;;;;;;;;;5082193;28;20059;-43
2022/11/22 00:44:42;;;;;;;115.47;40.40;;;;;;;;;;5082919;28;20131;-43
2022/11/22 00:47:09;;;;;;;112.78;41.53;;;;;;;;;;5083939;28;20531;-43
2022/11/22 00:49:35;;;;;;;114.63;41.42;;;;;;;;;;5082717;28;20032;-42
2022/11/22 00:52:02;;;;;;;123.82;44.60;;;;;;;;;;5082176;28;20039;-42
2022/11/22 00:54:28;;;;;;;113.55;42.40;;;;;;;;;;5078383;28;20064;-43
2022/11/22 00:56:55;;;;;;;125.28;43.45;;;;;;;;;;5080456;28;20044;-44
2022/11/22 00:59:21;;;;;;;111.40;40.13;;;;;;;;;;5085638;28;20406;-44
2022/11/22 01:01:48;;;;;;;111.40;40.95;;;;;;;;;;5083662;28;20055;-43
2022/11/22 01:04:14;;;;;;;110.78;40.22;;;;;;;;;;5081906;28;20464;-43
2022/11/22 01:06:41;;;;;;;110.63;42.85;;;;;;;;;;5082283;28;20628;-43
2022/11/22 01:09:16;;;;;;;188.85;86.03;;;;;;;;;;5074456;28;20036;-42
2022/11/22 01:11:43;;;;;;;121.28;43.65;;;;;;;;;;5083459;28;20047;-44
2022/11/22 01:14:09;;;;;;;123.20;41.88;;;;;;;;;;5083408;28;20044;-42
2022/11/22 01:16:36;;;;;;;104.53;40.63;;;;;;;;;;5078516;28;20060;-43
2022/11/22 01:19:02;;;;;;;116.18;40.03;;;;;;;;;;5080953;28;20039;-43
2022/11/22 01:21:29;;;;;;;106.13;39.17;;;;;;;;;;5085249;28;20383;-43
2022/11/22 01:23:55;;;;;;;114.22;39.58;;;;;;;;;;5079012;28;20048;-43
2022/11/22 01:26:22;;;;;;;112.88;41.10;;;;;;;;;;5085045;28;20043;-43
2022/11/22 01:28:48;;;;;;;116.30;39.60;;;;;;;;;;5079472;28;20041;-43
2022/11/22 01:31:15;;;;;;;118.82;38.85;;;;;;;;;;5081638;28;20115;-43
2022/11/22 01:33:41;;;;;;;110.60;39.03;;;;;;;;;;5078264;28;20043;-43
2022/11/22 01:36:08;;;;;;;108.60;36.95;;;;;;;;;;5077932;28;20082;-43
2022/11/22 01:38:34;;;;;;;105.72;37.75;;;;;;;;;;5083186;28;20043;-43
2022/11/22 01:41:01;;;;;;;112.28;38.75;;;;;;;;;;5082031;28;20625;-43
2022/11/22 01:43:27;;;;;;;107.97;39.35;;;;;;;;;;5082484;28;20047;-43
2022/11/22 01:45:59;;;;;;;127.82;41.90;;;;;;;;;;5079567;28;20044;-43
2022/11/22 01:48:30;;;;;;;116.63;38.13;;;;;;;;;;5076931;28;20052;-42
2022/11/22 01:50:59;;;;;;;114.32;38.33;;;;;;;;;;5081898;28;20040;-43
2022/11/22 01:53:31;;;;;;;105.55;37.97;;;;;;;;;;5083389;28;20047;-43
2022/11/22 01:55:59;;;;;;;110.72;36.95;;;;;;;;;;5080211;28;20422;-43
2022/11/22 01:58:27;;;;;;;99.50;34.72;;;;;;;;;;5083483;28;20098;-43
2022/11/22 02:00:54;;;;;;;126.28;39.50;;;;;;;;;;5081538;28;20553;-42
2022/11/22 02:03:21;;;;;;;108.18;37.15;;;;;;;;;;5076941;28;20075;-44
2022/11/22 02:05:48;;;;;;;117.32;37.95;;;;;;;;;;5081286;28;20129;-43
2022/11/22 02:08:22;;;;;;;109.32;36.70;;;;;;;;;;5082740;28;20044;-43
2022/11/22 02:10:51;;;;;;;111.13;37.03;;;;;;;;;;5080276;28;20658;-45
2022/11/22 02:13:19;;;;;;;101.13;36.88;;;;;;;;;;5082167;28;20062;-43
2022/11/22 02:15:45;;;;;;;109.95;38.47;;;;;;;;;;5076910;28;20127;-43
2022/11/22 02:18:12;;;;;;;105.18;36.45;;;;;;;;;;5084278;28;20059;-43
2022/11/22 02:20:38;;;;;;;112.35;37.17;;;;;;;;;;5083270;28;20048;-43
2022/11/22 02:23:08;;;;;;;107.75;37.92;;;;;;;;;;5081394;28;20040;-43
2022/11/22 02:25:40;;;;;;;104.75;35.38;;;;;;;;;;5078120;28;20537;-43
2022/11/22 02:28:11;;;;;;;92.15;34.08;;;;;;;;;;5080113;28;20306;-44
2022/11/22 02:30:38;;;;;;;105.95;37.40;;;;;;;;;;5077968;28;20119;-43
2022/11/22 02:33:05;;;;;;;101.72;36.05;;;;;;;;;;5073079;28;20402;-43
2022/11/22 02:35:31;;;;;;;94.93;34.25;;;;;;;;;;5084433;28;20036;-43
2022/11/22 02:38:13;;;;;;;115.03;37.25;;;;;;;;;;5079706;28;20074;-42
2022/11/22 02:40:52;;;;;;;90.90;32.95;;;;;;;;;;5077424;28;20049;-43
2022/11/22 02:43:23;;;;;;;99.18;34.92;;;;;;;;;;5079346;28;20653;-43
2022/11/22 02:45:50;;;;;;;102.68;35.55;;;;;;;;;;5077379;28;20434;-43
2022/11/22 02:48:16;;;;;;;108.47;36.25;;;;;;;;;;5076677;28;20028;-43
2022/11/22 02:50:43;;;;;;;120.32;38.40;;;;;;;;;;5082183;28;20036;-45
2022/11/22 02:53:10;;;;;;;96.03;34.15;;;;;;;;;;5082109;28;20080;-43
2022/11/22 02:55:37;;;;;;;95.03;33.80;;;;;;;;;;5077434;28;20036;-43
2022/11/22 02:58:04;;;;;;;116.13;38.65;;;;;;;;;;5081111;28;20649;-43
2022/11/22 03:00:35;;;;;;;101.55;35.33;;;;;;;;;;5078098;28;20107;-43
2022/11/22 03:03:01;;;;;;;112.50;37.65;;;;;;;;;;5076376;28;20062;-43
2022/11/22 03:05:28;;;;;;;95.88;34.97;;;;;;;;;;5083682;28;20047;-43
2022/11/22 03:07:54;;;;;;;108.57;37.05;;;;;;;;;;5078729;28;20491;-43
2022/11/22 03:10:21;;;;;;;112.20;39.45;;;;;;;;;;5080055;28;20378;-43
2022/11/22 03:12:47;;;;;;;98.63;35.25;;;;;;;;;;5077208;28;20481;-42
2022/11/22 03:15:14;;;;;;;94.32;33.85;;;;;;;;;;5077827;28;20962;-44
2022/11/22 03:17:40;;;;;;;96.38;34.33;;;;;;;;;;5077198;28;20124;-44
2022/11/22 03:20:07;;;;;;;102.75;35.17;;;;;;;;;;5080266;28;20037;-43
2022/11/22 03:22:33;;;;;;;97.30;36.90;;;;;;;;;;5082069;28;20397;-45
2022/11/22 03:25:00;;;;;;;108.13;38.78;;;;;;;;;;5078774;28;20036;-43
2022/11/22 03:27:26;;;;;;;118.20;39.78;;;;;;;;;;5077635;28;20044;-43
2022/11/22 03:29:53;;;;;;;117.22;39.38;;;;;;;;;;5084431;28;20038;-43
2022/11/22 03:32:19;;;;;;;110.90;37.03;;;;;;;;;;5086721;28;20501;-43
2022/11/22 03:34:46;;;;;;;110.57;39.90;;;;;;;;;;5080980;28;20044;-43
2022/11/22 03:37:12;;;;;;;108.57;37.42;;;;;;;;;;5085505;28;20036;-43
2022/11/22 03:39:39;;;;;;;101.15;35.05;;;;;;;;;;5083772;28;20036;-43
2022/11/22 03:42:05;;;;;;;111.75;35.17;;;;;;;;;;5080097;28;20059;-42
2022/11/22 03:44:32;;;;;;;93.05;35.38;;;;;;;;;;5087379;28;20036;-43
2022/11/22 03:46:58;;;;;;;95.85;33.40;;;;;;;;;;5085732;28;20051;-42
2022/11/22 03:49:25;;;;;;;90.47;31.98;;;;;;;;;;5082607;28;20113;-43
2022/11/22 03:51:51;;;;;;;98.60;33.60;;;;;;;;;;5081177;28;20032;-44
2022/11/22 03:54:18;;;;;;;88.28;32.72;;;;;;;;;;5081471;28;20039;-43
2022/11/22 03:56:44;;;;;;;99.05;34.08;;;;;;;;;;5079712;28;20113;-43
2022/11/22 03:59:10;;;;;;;94.45;32.20;;;;;;;;;;5083853;28;20044;-43
2022/11/22 04:01:37;;;;;;;92.30;33.65;;;;;;;;;;5084234;28;20040;-43
2022/11/22 04:04:04;;;;;;;102.47;34.20;;;;;;;;;;5082605;28;20040;-45
2022/11/22 04:06:30;;;;;;;105.65;35.72;;;;;;;;;;5079335;28;20032;-43
2022/11/22 04:08:57;;;;;;;99.95;35.42;;;;;;;;;;5082789;28;20069;-43
2022/11/22 04:11:23;;;;;;;112.47;37.08;;;;;;;;;;5084850;28;20044;-44
2022/11/22 04:16:35;;;;;;;95.97;34.00;;;;;;;;;;5080774;28;20055;-43
2022/11/22 04:19:01;;;;;;;104.93;34.80;;;;;;;;;;5080478;28;20081;-43
2022/11/22 04:21:34;;;;;;;89.28;31.77;;;;;;;;;;5079140;28;20047;-43
2022/11/22 04:26:46;;;;;;;89.07;31.40;;;;;;;;;;5082411;28;20109;-43
2022/11/22 04:29:12;;;;;;;102.80;33.70;;;;;;;;;;5083637;28;20047;-43
2022/11/22 04:34:24;;;;;;;99.35;33.40;;;;;;;;;;5082057;28;20032;-44
2022/11/22 04:36:50;;;;;;;100.10;34.42;;;;;;;;;;5084941;28;20042;-43
2022/11/22 04:39:16;;;;;;;100.97;34.03;;;;;;;;;;5076789;28;20490;-43
2022/11/22 04:41:43;;;;;;;102.35;34.42;;;;;;;;;;5083146;28;20037;-43
2022/11/22 04:46:55;;;;;;;93.70;33.00;;;;;;;;;;5081659;28;20046;-43
2022/11/22 04:49:21;;;;;;;102.13;33.67;;;;;;;;;;5080273;28;20059;-43
2022/11/22 04:54:33;;;;;;;107.00;32.80;;;;;;;;;;5078553;28;20036;-43
2022/11/22 04:56:59;;;;;;;121.45;36.80;;;;;;;;;;5080754;28;20048;-43
2022/11/22 04:59:26;;;;;;;116.80;34.97;;;;;;;;;;5081816;28;20036;-43
2022/11/22 05:01:53;;;;;;;117.93;35.72;;;;;;;;;;5081181;28;20040;-43
2022/11/22 05:04:19;;;;;;;107.97;35.35;;;;;;;;;;5083402;28;20040;-43
2022/11/22 05:06:46;;;;;;;115.60;37.70;;;;;;;;;;5078289;28;20089;-44
2022/11/22 05:09:12;;;;;;;118.85;36.28;;;;;;;;;;5080368;28;20041;-43
2022/11/22 05:11:39;;;;;;;110.43;33.85;;;;;;;;;;5084109;28;20410;-44
2022/11/22 05:14:05;;;;;;;118.28;36.83;;;;;;;;;;5082310;28;20456;-43
2022/11/22 05:16:32;;;;;;;111.78;34.13;;;;;;;;;;5088394;28;20059;-43
2022/11/22 05:18:58;;;;;;;129.75;37.40;;;;;;;;;;5079977;28;20027;-42
2022/11/22 05:21:26;;;;;;;107.65;34.80;;;;;;;;;;5078614;28;20043;-43
2022/11/22 05:23:55;;;;;;;126.60;38.38;;;;;;;;;;5081356;28;20050;-44
2022/11/22 05:26:32;;;;;;;116.10;37.63;;;;;;;;;;5084328;28;20541;-43
2022/11/22 05:29:04;;;;;;;120.85;37.25;;;;;;;;;;5079883;28;20097;-42
2022/11/22 05:31:31;;;;;;;114.05;36.03;;;;;;;;;;5084979;28;20456;-43
2022/11/22 05:33:58;;;;;;;111.78;33.30;;;;;;;;;;5079613;28;20036;-43
2022/11/22 05:36:25;;;;;;;113.93;35.47;;;;;;;;;;5078027;28;20121;-42
2022/11/22 05:38:52;;;;;;;119.90;37.28;;;;;;;;;;5081537;28;20040;-44
2022/11/22 05:41:19;;;;;;;119.28;36.90;;;;;;;;;;5081301;28;20067;-43
2022/11/22 05:43:46;;;;;;;109.43;34.28;;;;;;;;;;5078754;28;20047;-43
2022/11/22 05:46:14;;;;;;;112.43;34.15;;;;;;;;;;5081304;28;20036;-43
2022/11/22 05:48:47;;;;;;;127.13;36.95;;;;;;;;;;5078853;28;20047;-44
2022/11/22 05:51:15;;;;;;;111.93;34.90;;;;;;;;;;5077884;28;20041;-43
2022/11/22 05:53:42;;;;;;;136.32;39.13;;;;;;;;;;5080018;28;20465;-43
2022/11/22 05:56:13;;;;;;;126.07;37.13;;;;;;;;;;5084694;28;20119;-43
2022/11/22 05:58:40;;;;;;;118.60;36.90;;;;;;;;;;5079445;28;20054;-42
2022/11/22 06:01:08;;;;;;;125.90;37.88;;;;;;;;;;5084141;28;20044;-42
2022/11/22 06:03:35;;;;;;;118.47;38.88;;;;;;;;;;5076501;28;20577;-42
2022/11/22 06:06:02;;;;;;;116.35;36.40;;;;;;;;;;5078749;28;23712;-42
2022/11/22 06:08:29;;;;;;;122.07;37.58;;;;;;;;;;5082103;28;20047;-42
2022/11/22 06:11:03;;;;;;;118.55;35.22;;;;;;;;;;5079813;28;20041;-42
2022/11/22 06:13:34;;;;;;;128.50;36.55;;;;;;;;;;5079234;28;20108;-42
2022/11/22 06:16:01;;;;;;;129.75;36.80;;;;;;;;;;5078244;28;20048;-42
2022/11/22 06:18:27;;;;;;;124.63;36.75;;;;;;;;;;5079556;28;20044;-42
2022/11/22 06:21:01;;;;;;;138.45;40.05;;;;;;;;;;5080140;28;20498;-42
2022/11/22 06:23:28;;;;;;;128.05;36.25;;;;;;;;;;5081470;28;20040;-42
2022/11/22 06:25:55;;;;;;;143.90;40.28;;;;;;;;;;5079335;28;20490;-42
2022/11/22 06:28:21;;;;;;;120.82;36.78;;;;;;;;;;5081307;28;20051;-41
2022/11/22 06:30:48;;;;;;;127.18;39.50;;;;;;;;;;5086699;28;20071;-42
2022/11/22 06:33:14;;;;;;;121.25;36.75;;;;;;;;;;5079750;28;20037;-42
2022/11/22 06:35:41;;;;;;;129.27;37.25;;;;;;;;;;5081102;28;20032;-42
2022/11/22 06:38:07;;;;;;;137.27;41.33;;;;;;;;;;5080344;28;20394;-42
2022/11/22 06:40:34;;;;;;;126.25;39.28;;;;;;;;;;5084237;28;20032;-42
2022/11/22 06:43:00;;;;;;;133.35;41.65;;;;;;;;;;5074296;28;20036;-42
2022/11/22 06:45:27;;;;;;;132.15;38.15;;;;;;;;;;5077454;28;20094;-42
2022/11/22 06:47:53;;;;;;;140.98;39.95;;;;;;;;;;5078649;28;20497;-42
2022/11/22 06:50:20;;;;;;;120.88;36.80;;;;;;;;;;5082782;28;20083;-42
2022/11/22 06:52:51;;;;;;;128.82;38.67;;;;;;;;;;5076402;28;20132;-42
2022/11/22 06:55:17;;;;;;;143.85;40.00;;;;;;;;;;5080723;28;20512;-42
2022/11/22 06:58:04;;;;;;;132.70;38.78;;;;;;;;;;5078509;28;20035;-42
2022/11/22 07:00:30;;;;;;;128.68;38.45;;;;;;;;;;5077077;28;20464;-42
2022/11/22 07:02:56;;;;;;;154.00;43.33;;;;;;;;;;5077982;28;20052;-42
2022/11/22 07:05:23;;;;;;;132.63;38.38;;;;;;;;;;5082634;28;20051;-41
2022/11/22 07:07:51;;;;;;;139.10;40.45;;;;;;;;;;5077591;28;20045;-42
2022/11/22 07:10:18;;;;;;;147.82;41.17;;;;;;;;;;5079436;28;20059;-42
2022/11/22 07:12:44;;;;;;;148.45;41.20;;;;;;;;;;5076094;28;20063;-42
2022/11/22 07:15:11;;;;;;;147.90;42.88;;;;;;;;;;5073631;28;20040;-42
2022/11/22 07:17:37;;;;;;;154.05;42.70;;;;;;;;;;5080851;28;20049;-43
2022/11/22 07:20:04;;;;;;;139.25;42.00;;;;;;;;;;5079213;28;20598;-42
2022/11/22 07:22:31;;;;;;;135.65;41.97;;;;;;;;;;5080455;28;20083;-42
2022/11/22 07:24:57;;;;;;;163.20;43.58;;;;;;;;;;5077252;28;20032;-42
2022/11/22 07:27:23;;;;;;;177.93;49.67;;;;;;;;;;5078179;28;21050;-43
2022/11/22 07:29:50;;;;;;;159.98;47.30;;;;;;;;;;5080290;28;20056;-42
2022/11/22 07:32:16;;;;;;;161.60;47.45;;;;;;;;;;5081301;28;20036;-42
2022/11/22 07:34:43;;;;;;;168.85;49.15;;;;;;;;;;5081983;28;20050;-42
2022/11/22 07:37:09;;;;;;;189.07;51.60;;;;;;;;;;5078911;28;20118;-42
2022/11/22 07:39:36;;;;;;;157.35;46.70;;;;;;;;;;5076347;28;20032;-42
2022/11/22 07:42:02;;;;;;;162.95;47.92;;;;;;;;;;5079730;28;20067;-42
2022/11/22 07:44:29;;;;;;;157.88;46.38;;;;;;;;;;5083015;28;20040;-43
2022/11/22 07:46:55;;;;;;;173.68;48.10;;;;;;;;;;5077814;28;20040;-42
2022/11/22 07:49:22;;;;;;;161.63;47.72;;;;;;;;;;5082855;28;20051;-42
2022/11/22 07:51:48;;;;;;;161.77;47.67;;;;;;;;;;5075414;28;20664;-42
2022/11/22 07:54:15;;;;;;;175.70;50.13;;;;;;;;;;5075211;28;20037;-42
2022/11/22 07:56:41;;;;;;;165.20;46.00;;;;;;;;;;5080577;28;20534;-42
2022/11/22 07:59:08;;;;;;;170.52;50.05;;;;;;;;;;5077629;28;20040;-42
